createdAt,value
2022-09-23T00:01:33.940Z,100599.71
2022-09-23T00:04:02.586Z,100596.88
2022-09-23T00:06:30.938Z,100595.76
2022-09-23T00:08:59.316Z,100592.20
2022-09-23T00:11:29.221Z,100590.73
2022-09-23T00:14:00.562Z,100588.73
2022-09-23T00:16:34.816Z,100587.45
2022-09-23T00:19:04.700Z,100584.42
2022-09-23T00:21:33.169Z,100585.41
2022-09-23T00:24:02.582Z,100581.88
2022-09-23T00:26:31.028Z,100579.91
2022-09-23T00:28:59.441Z,100580.09
2022-09-23T00:31:28.315Z,100577.10
2022-09-23T00:34:01.259Z,100579.19
2022-09-23T00:36:31.548Z,100581.65
2022-09-23T00:39:00.340Z,100580.45
2022-09-23T00:41:29.050Z,100583.45
2022-09-23T00:44:00.152Z,100585.05
2022-09-23T00:46:28.426Z,100582.09
2022-09-23T00:49:11.569Z,100584.19
2022-09-23T00:51:54.568Z,100582.09
2022-09-23T00:54:27.507Z,100586.27
2022-09-23T00:56:57.822Z,100588.19
2022-09-23T00:59:29.184Z,100584.00
2022-09-23T01:02:00.537Z,100587.65
2022-09-23T01:04:30.551Z,100585.52
2022-09-23T01:06:58.893Z,100583.92
2022-09-23T01:09:27.643Z,100585.27
2022-09-23T01:12:08.017Z,100586.48
2022-09-23T01:14:40.652Z,100587.31
2022-09-23T01:17:39.541Z,100586.07
2022-09-23T01:20:36.914Z,100589.20
2022-09-23T01:23:26.813Z,100590.38
2022-09-23T01:25:58.044Z,100592.48
2022-09-23T01:28:59.546Z,100592.62
2022-09-23T01:31:45.398Z,100591.55
2022-09-23T01:34:50.449Z,100593.10
2022-09-23T01:37:29.666Z,100592.75
2022-09-23T01:40:22.702Z,100595.86
2022-09-23T01:43:17.794Z,100596.02
2022-09-23T01:46:00.451Z,100594.63
2022-09-23T01:48:46.200Z,100596.50
2022-09-23T01:51:37.867Z,100597.02
2022-09-23T01:54:35.883Z,100600.87
2022-09-23T01:57:11.228Z,100604.38
2022-09-23T01:59:48.101Z,100602.29
2022-09-23T02:03:05.152Z,100607.33
2022-09-23T02:05:59.150Z,100608.03
2022-09-23T02:08:38.066Z,100606.80
2022-09-23T02:11:18.365Z,100610.61
2022-09-23T02:13:58.879Z,100607.44
2022-09-23T02:16:56.213Z,100604.29
2022-09-23T02:19:40.443Z,100606.20
2022-09-23T02:22:44.781Z,100607.21
2022-09-23T02:25:13.590Z,100609.30
2022-09-23T02:28:02.905Z,100612.09
2022-09-23T02:30:43.287Z,100614.36
2022-09-23T02:33:29.635Z,100613.63
2022-09-23T02:36:26.260Z,100615.34
2022-09-23T02:39:03.981Z,100615.17
2022-09-23T02:42:05.944Z,100613.23
2022-09-23T02:44:34.409Z,100614.60
2022-09-23T02:47:03.128Z,100613.38
2022-09-23T02:49:34.083Z,100611.77
2022-09-23T02:52:05.700Z,100613.69
2022-09-23T02:54:35.546Z,100612.61
2022-09-23T02:57:06.837Z,100614.68
2022-09-23T02:59:37.172Z,100613.27
2022-09-23T03:02:26.691Z,100612.73
2022-09-23T03:05:26.087Z,100607.62
2022-09-23T03:08:13.099Z,100612.50
2022-09-23T03:11:20.786Z,100613.72
2022-09-23T03:14:06.777Z,100617.54
2022-09-23T03:16:44.213Z,100618.20
2022-09-23T03:19:41.229Z,100616.63
2022-09-23T03:22:33.976Z,100615.37
2022-09-23T03:25:11.754Z,100608.61
2022-09-23T03:27:42.611Z,100620.38
2022-09-23T03:30:13.116Z,100621.23
2022-09-23T03:32:47.175Z,100617.91
2022-09-23T03:35:15.785Z,100619.81
2022-09-23T03:38:07.264Z,100620.16
2022-09-23T03:40:43.677Z,100615.77
2022-09-23T03:43:14.087Z,100615.08
2022-09-23T03:45:42.822Z,100612.80
2022-09-23T03:48:11.184Z,100611.23
